Time;durP1;ratioP1;P1;durP2;ratioP2;P2;SDS_P1;SDS_P2;PMS_P1;PMS_P2;Temp;Humidity;BMP_temperature;BMP_pressure;BME280_temperature;BME280_humidity;BME280_pressure;Samples;Min_cycle;Max_cycle;Signal;HPM_P1;HPM_P2
2021/12/07 00:00:35;;;;;;;;;16.75;13.00;;;;;8.98;80.11;101025.28;4993384;28;45882;-74
2021/12/07 00:03:01;;;;;;;;;3.00;3.00;;;;;8.93;80.47;101017.25;4990210;28;46148;-74
2021/12/07 00:05:27;;;;;;;;;9.00;5.75;;;;;8.99;80.92;101034.84;4987070;28;45816;-74
2021/12/07 00:07:53;;;;;;;;;4.75;3.25;;;;;8.88;80.48;101008.34;4992915;28;45653;-74
2021/12/07 00:10:18;;;;;;;;;8.75;5.25;;;;;8.74;80.60;100997.31;4992226;28;45658;-74
2021/12/07 00:12:46;;;;;;;;;12.00;10.25;;;;;8.89;80.56;101025.75;4990319;28;45846;-74
2021/12/07 00:15:16;;;;;;;;;2.00;2.00;;;;;8.70;80.86;101000.59;4990100;28;45308;-74
2021/12/07 00:17:42;;;;;;;;;5.50;2.25;;;;;8.81;81.21;101016.69;4992320;28;45621;-74
2021/12/07 00:20:13;;;;;;;;;16.00;13.00;;;;;8.62;81.05;100987.22;4994466;28;45490;-73
2021/12/07 00:22:40;;;;;;;;;8.00;7.00;;;;;8.76;81.25;101012.19;4989518;28;45435;-74
2021/12/07 00:25:07;;;;;;;;;12.75;11.00;;;;;8.76;81.48;101008.69;4986649;28;45562;-74
2021/12/07 00:27:34;;;;;;;;;14.75;11.75;;;;;8.76;81.37;100995.66;4985994;28;45585;-74
2021/12/07 00:30:00;;;;;;;;;40.00;34.00;;;;;8.74;81.28;100994.72;4981979;28;45559;-74
2021/12/07 00:32:36;;;;;;;;;13.75;11.50;;;;;8.73;81.23;100993.81;4992089;28;46166;-74
2021/12/07 00:37:40;;;;;;;;;3.00;3.00;;;;;8.74;81.19;100989.50;4994066;28;45509;-74
2021/12/07 00:40:09;;;;;;;;;1.25;1.00;;;;;8.71;81.02;100986.75;4993816;28;45481;-74
2021/12/07 00:42:35;;;;;;;;;1.00;1.00;;;;;8.68;81.10;100992.72;4995753;28;46294;-75
2021/12/07 00:45:01;;;;;;;;;13.00;5.00;;;;;8.64;80.87;100990.78;4995777;28;45450;-73
2021/12/07 00:47:27;;;;;;;;;5.50;4.00;;;;;8.58;80.87;100984.44;4994047;28;45881;-74
2021/12/07 00:49:53;;;;;;;;;2.00;1.25;;;;;8.49;81.09;100966.66;4990878;28;45570;-74
2021/12/07 00:52:18;;;;;;;;;3.25;2.00;;;;;8.50;80.87;100969.34;4992658;28;46567;-73
2021/12/07 00:54:44;;;;;;;;;6.50;4.00;;;;;8.45;80.93;100965.63;4992564;28;45909;-74
2021/12/07 00:57:10;;;;;;;;;2.00;0.00;;;;;8.42;80.59;100955.09;4990078;28;45487;-74
2021/12/07 00:59:35;;;;;;;;;3.75;1.75;;;;;8.33;81.64;100939.91;4995305;28;45552;-74
2021/12/07 01:02:02;;;;;;;;;2.25;2.25;;;;;8.22;81.49;100915.13;4994417;28;46262;-73
2021/12/07 01:04:29;;;;;;;;;3.25;2.00;;;;;8.25;81.63;100924.75;4993818;28;45703;-73
2021/12/07 01:25:40;;;;;;;;;1.50;1.00;;;;;7.94;82.30;100872.22;4995297;28;45538;-73
2021/12/07 01:30:56;;;;;;;;;2.25;1.25;;;;;7.98;82.29;100878.47;4994763;28;45567;-73
2021/12/07 01:44:23;;;;;;;;;3.00;1.75;;;;;7.79;82.71;100849.81;4995041;28;45598;-73
2021/12/07 01:47:19;;;;;;;;;2.00;1.00;;;;;7.83;82.64;100863.03;4994558;28;45514;-73
2021/12/07 01:58:05;;;;;;;;;2.00;1.00;;;;;7.84;82.39;100837.91;4997073;28;45612;-73
2021/12/07 02:00:35;;;;;;;;;3.25;3.00;;;;;7.85;82.52;100837.09;4988040;28;45521;-73
2021/12/07 02:03:02;;;;;;;;;3.00;2.25;;;;;7.90;82.58;100840.81;4997072;28;45553;-73
2021/12/07 02:05:27;;;;;;;;;5.00;2.75;;;;;7.79;82.35;100813.41;5002865;28;45908;-73
2021/12/07 02:07:53;;;;;;;;;1.75;0.50;;;;;7.36;82.05;100719.66;4993756;28;45499;-72
2021/12/07 02:10:25;;;;;;;;;3.75;1.75;;;;;7.91;81.73;100807.03;4995801;28;45550;-73
2021/12/07 02:12:55;;;;;;;;;0.75;0.75;;;;;8.02;81.58;100815.34;5001563;28;45662;-73
2021/12/07 02:15:25;;;;;;;;;0.25;0.00;;;;;7.95;81.41;100785.53;5001906;28;45710;-73
2021/12/07 02:17:52;;;;;;;;;1.00;0.00;;;;;7.97;81.54;100786.50;4993656;28;45752;-73
2021/12/07 02:20:20;;;;;;;;;2.00;0.00;;;;;8.11;80.92;100812.25;4985986;28;45539;-73
2021/12/07 02:22:46;;;;;;;;;1.00;0.00;;;;;8.15;81.29;100804.63;4984910;28;45424;-73
2021/12/07 02:25:15;;;;;;;;;0.25;0.00;;;;;8.20;80.64;100796.13;4995789;28;46338;-73
2021/12/07 02:27:41;;;;;;;;;2.00;1.00;;;;;8.11;80.89;100773.22;4995538;28;45269;-73
2021/12/07 02:30:11;;;;;;;;;1.75;0.00;;;;;8.21;80.74;100779.72;4987080;28;45419;-73
2021/12/07 02:32:37;;;;;;;;;0.75;0.50;;;;;8.20;80.56;100767.50;4987059;28;45448;-73
2021/12/07 02:35:04;;;;;;;;;1.00;0.50;;;;;8.31;80.05;100774.06;4993708;28;46198;-73
2021/12/07 02:37:33;;;;;;;;;1.25;0.00;;;;;8.34;79.99;100769.88;4994767;28;45629;-72
2021/12/07 02:39:59;;;;;;;;;4.00;1.00;;;;;8.40;79.93;100768.38;4986467;28;45526;-73
2021/12/07 02:42:26;;;;;;;;;5.00;1.00;;;;;8.23;79.71;100739.03;4995636;28;45594;-73
2021/12/07 02:44:52;;;;;;;;;3.25;2.00;;;;;8.39;79.52;100750.97;4990197;28;46171;-73
2021/12/07 02:47:18;;;;;;;;;3.00;2.75;;;;;8.33;79.38;100741.19;4995073;28;45458;-73
2021/12/07 02:49:43;;;;;;;;;1.00;1.00;;;;;8.39;79.20;100735.34;4986296;28;45523;-73
2021/12/07 02:52:10;;;;;;;;;2.00;1.00;;;;;8.36;79.41;100736.13;4992674;28;45738;-72
2021/12/07 02:54:43;;;;;;;;;1.00;1.00;;;;;8.44;79.08;100744.28;4986042;28;46703;-73
2021/12/07 02:57:09;;;;;;;;;1.00;1.00;;;;;8.32;79.32;100721.19;4984562;28;45443;-73
2021/12/07 02:59:41;;;;;;;;;1.00;0.50;;;;;8.38;79.03;100739.69;4985767;28;45424;-73
2021/12/07 03:02:09;;;;;;;;;1.25;0.00;;;;;8.26;79.08;100707.94;4994195;28;45642;-73
2021/12/07 03:04:41;;;;;;;;;2.00;1.00;;;;;8.26;79.13;100713.16;4994841;28;46242;-73
2021/12/07 03:07:17;;;;;;;;;2.75;2.00;;;;;8.36;79.07;100718.78;4992719;28;45294;-73
2021/12/07 03:28:22;;;;;;;;;1.00;0.00;;;;;8.10;78.75;100644.84;4978569;28;45389;-73
2021/12/07 03:30:48;;;;;;;;;1.75;1.00;;;;;8.11;78.80;100651.81;4991597;28;45362;-73
2021/12/07 03:33:13;;;;;;;;;3.00;1.00;;;;;8.26;78.68;100674.97;4969581;28;45318;-73
2021/12/07 03:35:39;;;;;;;;;1.00;1.00;;;;;8.24;78.44;100662.75;4983213;28;45423;-73
2021/12/07 03:38:07;;;;;;;;;0.75;0.00;;;;;8.34;78.02;100677.91;4992870;28;47124;-73
2021/12/07 03:40:34;;;;;;;;;2.00;1.00;;;;;8.26;77.49;100648.06;4983347;28;45322;-73
2021/12/07 03:43:01;;;;;;;;;2.00;1.50;;;;;8.38;77.95;100650.28;4987178;28;45446;-73
2021/12/07 03:45:26;;;;;;;;;1.00;1.00;;;;;8.41;77.87;100646.09;4991183;28;45547;-72
2021/12/07 03:47:53;;;;;;;;;1.75;1.00;;;;;8.33;77.40;100614.53;4980615;28;45377;-73
2021/12/07 03:50:21;;;;;;;;;1.67;1.00;;;;;8.49;77.17;100622.97;4990552;28;45441;-73
2021/12/07 03:52:50;;;;;;;;;0.00;0.00;;;;;8.48;76.73;100601.28;4992612;28;45475;-72
2021/12/07 03:55:16;;;;;;;;;1.67;0.00;;;;;8.46;76.31;100589.91;4996032;28;45535;-73
2021/12/07 03:57:42;;;;;;;;;1.75;1.00;;;;;8.43;76.25;100591.50;4994216;28;45745;-73
2021/12/07 04:00:13;;;;;;;;;2.00;1.00;;;;;8.41;76.08;100594.03;4995786;28;45499;-73
2021/12/07 04:02:40;;;;;;;;;2.75;2.00;;;;;8.46;75.92;100599.44;4985640;28;45491;-73
2021/12/07 04:05:14;;;;;;;;;6.50;5.50;;;;;8.46;76.12;100609.88;4973997;28;46524;-73
2021/12/07 04:07:41;;;;;;;;;1.75;1.50;;;;;8.33;76.05;100591.09;4996093;28;45654;-72
2021/12/07 04:10:10;;;;;;;;;3.00;1.00;;;;;8.36;76.07;100604.25;4981960;28;45563;-74
2021/12/07 04:12:36;;;;;;;;;1.50;0.75;;;;;8.30;76.28;100617.03;4982549;28;45519;-73
2021/12/07 04:15:04;;;;;;;;;1.75;1.00;;;;;8.23;76.22;100608.91;4998868;28;45585;-73
2021/12/07 04:17:30;;;;;;;;;1.67;0.00;;;;;8.17;76.08;100589.59;4999747;28;45443;-73
2021/12/07 04:19:55;;;;;;;;;0.75;0.00;;;;;8.16;75.97;100567.03;4989967;28;45507;-73
2021/12/07 04:22:21;;;;;;;;;2.00;1.00;;;;;8.25;75.43;100578.63;4995271;28;45451;-73
2021/12/07 04:24:47;;;;;;;;;1.00;0.00;;;;;8.17;75.62;100549.69;4998179;28;46103;-73
2021/12/07 04:27:12;;;;;;;;;0.50;0.00;;;;;8.16;75.77;100556.59;4983836;28;45400;-73
2021/12/07 04:29:38;;;;;;;;;2.75;1.75;;;;;7.97;75.71;100515.94;4991848;28;45526;-73
2021/12/07 04:32:04;;;;;;;;;0.25;0.00;;;;;7.86;75.99;100496.44;4991640;28;45525;-73
2021/12/07 04:34:29;;;;;;;;;1.00;0.00;;;;;7.97;76.15;100515.06;4992954;28;46614;-73
2021/12/07 04:36:55;;;;;;;;;0.00;0.00;;;;;8.03;76.30;100520.50;4984034;28;45446;-72
2021/12/07 04:39:21;;;;;;;;;3.00;1.00;;;;;8.00;76.41;100510.00;4998852;28;45470;-73
2021/12/07 04:41:48;;;;;;;;;1.00;0.50;;;;;7.87;75.78;100476.53;4988144;28;45314;-73
2021/12/07 04:44:14;;;;;;;;;0.67;0.00;;;;;7.87;76.14;100468.72;4979999;28;45776;-73
2021/12/07 04:46:55;;;;;;;;;3.75;1.25;;;;;7.88;76.00;100465.31;4980062;28;45365;-73
2021/12/07 04:57:43;;;;;;;;;2.25;1.00;;;;;7.99;75.66;100437.97;4994222;28;45490;-73
2021/12/07 05:00:26;;;;;;;;;1.00;1.00;;;;;7.86;75.62;100381.09;4994323;28;45551;-73
2021/12/07 05:03:05;;;;;;;;;2.25;1.00;;;;;7.92;75.06;100379.63;4996904;28;45536;-73
2021/12/07 05:05:36;;;;;;;;;1.75;0.75;;;;;8.06;74.95;100395.78;4996917;28;46263;-72
2021/12/07 05:08:06;;;;;;;;;1.25;0.25;;;;;7.84;75.14;100347.25;4995929;28;45531;-73
2021/12/07 05:10:58;;;;;;;;;1.00;1.00;;;;;8.09;74.52;100381.97;4996682;28;45663;-73
2021/12/07 05:39:39;;;;;;;;;1.00;0.50;;;;;7.90;73.47;100272.06;4996550;28;45578;-73
2021/12/07 05:42:04;;;;;;;;;0.00;0.00;;;;;7.89;73.39;100259.00;4996251;28;45622;-73
2021/12/07 05:44:30;;;;;;;;;2.75;1.00;;;;;8.05;73.05;100297.72;4996504;28;45594;-73
2021/12/07 05:46:56;;;;;;;;;1.75;1.75;;;;;8.06;72.90;100298.63;4995261;28;46168;-72
2021/12/07 05:49:21;;;;;;;;;18.75;13.00;;;;;7.93;73.02;100286.88;4992324;28;45479;-73
2021/12/07 05:51:47;;;;;;;;;6.25;4.00;;;;;7.86;73.13;100291.00;4996500;28;45543;-73
2021/12/07 05:54:12;;;;;;;;;2.00;1.00;;;;;7.83;73.46;100288.25;4987125;28;45580;-73
2021/12/07 05:56:38;;;;;;;;;1.00;0.75;;;;;7.82;73.62;100285.59;4995177;28;45606;-73
2021/12/07 05:59:04;;;;;;;;;1.25;1.00;;;;;7.89;73.69;100290.22;4997617;28;45859;-76
2021/12/07 06:01:29;;;;;;;;;0.00;0.00;;;;;7.85;73.15;100272.72;4993877;28;45472;-73
2021/12/07 06:03:55;;;;;;;;;0.00;0.00;;;;;7.91;72.78;100275.53;4996012;28;45543;-73
2021/12/07 06:06:21;;;;;;;;;0.00;0.00;;;;;7.94;72.78;100260.06;4994819;28;46054;-73
2021/12/07 06:08:46;;;;;;;;;1.25;0.25;;;;;8.13;73.00;100254.66;4994953;28;45408;-73
2021/12/07 06:11:12;;;;;;;;;1.00;0.75;;;;;8.25;72.63;100256.78;4997182;28;45393;-73
2021/12/07 06:13:37;;;;;;;;;1.25;1.25;;;;;8.31;71.98;100251.81;4983696;28;45436;-73
2021/12/07 06:16:07;;;;;;;;;0.00;0.00;;;;;8.40;71.26;100229.56;4993328;28;45395;-73
2021/12/07 06:18:34;;;;;;;;;1.50;0.00;;;;;8.71;70.46;100236.66;4984286;28;45512;-73
2021/12/07 06:21:00;;;;;;;;;0.00;0.00;;;;;8.82;69.56;100216.19;4985779;28;45349;-73
2021/12/07 06:23:25;;;;;;;;;0.00;0.00;;;;;8.98;68.01;100199.31;4991898;28;45552;-73
2021/12/07 06:25:54;;;;;;;;;0.00;0.00;;;;;9.33;66.99;100219.50;4980693;28;46226;-73
2021/12/07 06:28:20;;;;;;;;;1.00;0.75;;;;;9.39;66.93;100205.78;4990732;28;45530;-73
2021/12/07 06:30:47;;;;;;;;;0.33;0.00;;;;;9.52;66.24;100207.00;4988171;28;45481;-74
2021/12/07 06:33:15;;;;;;;;;0.00;0.00;;;;;9.60;66.62;100215.94;4996162;28;45653;-74
2021/12/07 06:35:41;;;;;;;;;0.00;0.00;;;;;9.68;66.21;100206.59;4990056;28;46635;-73
2021/12/07 06:38:08;;;;;;;;;1.00;0.50;;;;;9.82;65.91;100198.28;4966780;28;45509;-74
2021/12/07 06:40:33;;;;;;;;;0.00;0.00;;;;;9.82;65.15;100182.63;5003284;28;45416;-74
2021/12/07 06:43:00;;;;;;;;;1.00;0.00;;;;;10.00;65.01;100183.09;4996192;28;45592;-74
2021/12/07 06:45:30;;;;;;;;;0.00;0.00;;;;;10.20;64.83;100183.63;4980704;28;46524;-73
2021/12/07 06:47:57;;;;;;;;;0.00;0.00;;;;;10.33;63.93;100190.97;4988924;28;45575;-74
2021/12/07 06:50:25;;;;;;;;;3.00;0.00;;;;;10.39;64.37;100178.91;4988369;28;45543;-75
2021/12/07 06:52:52;;;;;;;;;1.00;0.00;;;;;10.23;64.57;100148.91;4982309;28;45508;-73
2021/12/07 06:55:18;;;;;;;;;1.00;0.00;;;;;10.46;64.44;100168.63;4980326;28;45603;-73
2021/12/07 06:57:44;;;;;;;;;2.00;2.00;;;;;10.47;64.00;100162.56;4989963;28;45551;-74
2021/12/07 07:00:11;;;;;;;;;4.50;4.25;;;;;10.40;64.59;100151.94;4970885;28;45473;-74
2021/12/07 07:02:37;;;;;;;;;3.33;2.00;;;;;10.48;64.50;100153.00;4980416;28;45360;-74
2021/12/07 07:05:04;;;;;;;;;2.00;2.00;;;;;10.45;64.11;100127.72;4977486;28;45888;-74
2021/12/07 07:07:29;;;;;;;;;1.00;1.00;;;;;10.61;64.29;100139.41;4978758;28;45771;-74
2021/12/07 07:09:55;;;;;;;;;2.33;2.00;;;;;10.72;63.92;100137.03;4996961;28;45384;-74
2021/12/07 07:12:21;;;;;;;;;5.00;4.00;;;;;10.69;64.26;100127.38;4997330;28;45483;-74
2021/12/07 07:14:47;;;;;;;;;2.00;1.33;;;;;10.77;63.95;100135.41;4997517;28;45380;-74
2021/12/07 07:17:13;;;;;;;;;1.00;1.00;;;;;10.84;63.78;100137.31;4998315;28;45503;-74
2021/12/07 07:19:39;;;;;;;;;0.00;0.00;;;;;11.02;63.09;100130.72;4980499;28;45540;-74
2021/12/07 07:22:05;;;;;;;;;1.00;0.00;;;;;11.06;62.70;100119.47;4996544;28;45523;-74
2021/12/07 07:24:32;;;;;;;;;0.00;0.00;;;;;11.20;62.41;100122.38;4979395;28;46141;-74
2021/12/07 07:26:59;;;;;;;;;1.33;0.00;;;;;11.27;62.68;100114.69;4994868;28;45446;-74
2021/12/07 07:29:25;;;;;;;;;0.00;0.00;;;;;11.15;62.67;100102.25;4977031;28;45385;-74
2021/12/07 07:31:51;;;;;;;;;0.00;0.00;;;;;11.15;62.54;100090.91;4983262;28;45357;-74
2021/12/07 07:34:17;;;;;;;;;0.00;0.00;;;;;11.24;62.20;100090.19;4985266;28;46488;-74
2021/12/07 07:36:42;;;;;;;;;0.00;0.00;;;;;11.21;62.31;100091.03;4974069;28;45485;-75
2021/12/07 07:39:08;;;;;;;;;0.00;0.00;;;;;11.21;62.19;100075.34;4996665;28;45638;-75
2021/12/07 07:41:34;;;;;;;;;1.00;1.00;;;;;11.13;62.31;100059.50;4982702;28;45421;-74
2021/12/07 07:43:59;;;;;;;;;1.33;1.33;;;;;11.18;62.44;100062.22;4973650;28;46712;-74
2021/12/07 07:46:26;;;;;;;;;1.67;1.00;;;;;11.05;63.07;100044.53;4982838;28;45406;-74
2021/12/07 07:48:51;;;;;;;;;1.00;1.00;;;;;11.25;62.99;100058.00;4978725;28;45655;-74
2021/12/07 07:51:17;;;;;;;;;3.00;2.67;;;;;11.22;63.06;100065.75;4989660;28;45380;-74
2021/12/07 07:53:43;;;;;;;;;2.00;2.00;;;;;11.28;63.20;100061.56;4983918;28;46329;-74
2021/12/07 07:56:09;;;;;;;;;10.67;7.00;;;;;11.26;63.26;100057.13;4967882;28;47316;-75
2021/12/07 07:58:35;;;;;;;;;6.00;4.00;;;;;11.21;62.99;100056.16;4994098;28;45477;-73
2021/12/07 08:01:01;;;;;;;;;2.00;2.00;;;;;11.34;63.53;100066.91;4986332;28;45522;-74
2021/12/07 08:03:26;;;;;;;;;3.00;2.00;;;;;11.43;63.30;100044.38;4985956;28;45863;-74
2021/12/07 08:05:52;;;;;;;;;5.33;4.00;;;;;11.57;62.41;100031.56;4991104;28;45475;-74
2021/12/07 08:08:19;;;;;;;;;2.33;2.00;;;;;11.65;62.66;100024.72;4979828;28;45464;-76
2021/12/07 08:10:45;;;;;;;;;2.00;1.33;;;;;11.84;62.50;100033.78;4970194;28;45688;-76
2021/12/07 08:13:11;;;;;;;;;2.00;2.00;;;;;11.89;62.23;100019.03;4987454;28;46668;-71
2021/12/07 08:15:42;;;;;;;;;1.33;1.33;;;;;12.09;61.52;100028.06;4994472;28;45379;-71
2021/12/07 08:18:08;;;;;;;;;2.00;2.00;;;;;12.16;61.73;100028.19;4980560;28;45492;-71
2021/12/07 08:20:34;;;;;;;;;1.00;1.00;;;;;12.27;61.91;100034.47;4971404;28;45509;-71
2021/12/07 08:23:04;;;;;;;;;1.00;1.00;;;;;12.25;61.39;100023.94;4982571;28;45399;-71
2021/12/07 08:25:37;;;;;;;;;0.00;0.00;;;;;12.30;61.06;100037.13;4988497;28;45570;-71
2021/12/07 08:28:07;;;;;;;;;3.00;2.00;;;;;12.33;60.90;100042.41;4993876;28;45478;-71
2021/12/07 08:30:33;;;;;;;;;1.67;0.00;;;;;12.36;61.62;100037.22;4994884;28;45467;-72
2021/12/07 08:32:59;;;;;;;;;1.00;1.00;;;;;12.30;60.82;100018.81;4975487;28;47414;-72
2021/12/07 08:35:24;;;;;;;;;1.00;1.00;;;;;12.58;60.22;100027.06;4981546;28;45460;-72
2021/12/07 08:37:50;;;;;;;;;14.00;13.00;;;;;12.68;60.18;99992.25;4975574;28;45619;-72
2021/12/07 08:40:22;;;;;;;;;2.00;1.00;;;;;13.00;60.08;100024.06;4986195;28;45522;-71
2021/12/07 08:42:49;;;;;;;;;2.67;1.67;;;;;13.04;59.77;100022.38;4978947;28;46584;-71
2021/12/07 08:45:15;;;;;;;;;2.00;2.00;;;;;13.07;59.41;100022.38;4994956;28;45553;-71
2021/12/07 08:47:40;;;;;;;;;2.00;1.33;;;;;13.05;59.67;100018.88;4985404;28;45422;-70
2021/12/07 08:50:11;;;;;;;;;7.00;6.00;;;;;12.99;59.20;100013.56;4976062;28;45417;-71
2021/12/07 08:52:36;;;;;;;;;13.33;11.33;;;;;13.01;59.33;100020.59;4991012;28;45529;-72
2021/12/07 09:00:19;;;;;;;;;7.33;7.00;;;;;13.20;58.41;99998.06;4974323;28;45416;-71
2021/12/07 09:02:45;;;;;;;;;4.67;4.33;;;;;13.23;58.37;99978.84;4992008;28;46030;-73
2021/12/07 09:05:11;;;;;;;;;6.67;5.67;;;;;13.28;58.33;99992.91;4992206;28;45491;-75
2021/12/07 09:07:37;;;;;;;;;2.00;2.00;;;;;13.45;58.08;100024.56;4989077;28;45548;-75
2021/12/07 09:10:05;;;;;;;;;3.67;2.00;;;;;13.58;56.76;100013.34;4989635;28;45474;-71
2021/12/07 09:12:30;;;;;;;;;6.33;4.33;;;;;13.57;56.91;100008.06;4976868;28;46171;-73
2021/12/07 09:14:56;;;;;;;;;1.67;1.00;;;;;13.55;56.67;100009.81;4974357;28;45514;-72
2021/12/07 09:17:22;;;;;;;;;2.00;2.00;;;;;13.49;56.36;100008.91;4973826;28;45865;-71
2021/12/07 09:19:47;;;;;;;;;3.00;2.00;;;;;13.42;56.62;100009.69;4990164;28;45488;-71
2021/12/07 09:22:13;;;;;;;;;2.33;2.00;;;;;13.47;57.31;100036.00;4991460;28;46884;-71
2021/12/07 09:24:39;;;;;;;;;0.00;0.00;;;;;13.32;58.16;100048.06;4989387;28;45381;-71
2021/12/07 09:27:05;;;;;;;;;2.00;2.00;;;;;13.17;59.32;100045.25;4991531;28;45452;-72
2021/12/07 09:29:31;;;;;;;;;2.00;2.00;;;;;13.02;59.95;100052.94;4989901;28;45752;-72
2021/12/07 09:31:57;;;;;;;;;2.00;2.00;;;;;13.05;60.69;100068.69;4991099;28;45438;-72
2021/12/07 09:34:23;;;;;;;;;4.00;4.00;;;;;12.96;61.33;100072.09;4995319;28;45432;-71
2021/12/07 09:36:48;;;;;;;;;5.00;4.00;;;;;12.79;62.90;100076.22;4971471;28;45515;-71
2021/12/07 09:39:17;;;;;;;;;2.00;1.67;;;;;12.73;64.04;100092.75;4992286;28;45637;-71
2021/12/07 09:41:44;;;;;;;;;24.25;24.00;;;;;12.70;64.58;100105.81;4986788;28;45346;-72
2021/12/07 09:44:10;;;;;;;;;1.67;1.00;;;;;12.59;64.39;100089.94;4972956;28;45392;-72
2021/12/07 09:46:36;;;;;;;;;3.00;3.00;;;;;12.64;64.79;100095.25;4967147;28;45500;-72
2021/12/07 09:49:05;;;;;;;;;2.67;2.00;;;;;12.54;64.05;100079.41;4994748;28;45681;-73
2021/12/07 09:51:31;;;;;;;;;2.00;2.00;;;;;12.64;64.58;100075.16;4996375;28;46667;-73
2021/12/07 09:53:58;;;;;;;;;10.00;5.00;;;;;12.53;65.44;100050.53;4988040;28;45583;-73
2021/12/07 09:56:25;;;;;;;;;3.00;2.00;;;;;12.53;65.31;100045.31;4989152;28;45827;-72
2021/12/07 09:58:53;;;;;;;;;1.33;1.33;;;;;12.50;65.71;100051.38;4969095;28;45457;-72
2021/12/07 10:01:20;;;;;;;;;2.00;2.00;;;;;12.43;66.27;100052.16;4991737;28;45705;-72
2021/12/07 10:03:46;;;;;;;;;5.00;5.00;;;;;12.34;67.04;100044.19;4976925;28;45430;-71
2021/12/07 10:06:12;;;;;;;;;5.00;5.00;;;;;12.33;67.59;100039.78;4990605;28;45653;-72
2021/12/07 10:08:38;;;;;;;;;8.00;7.00;;;;;12.22;68.81;100038.75;4988139;28;45439;-72
2021/12/07 10:11:08;;;;;;;;;14.00;13.25;;;;;12.19;69.22;100038.69;4970920;28;47766;-72
2021/12/07 10:13:34;;;;;;;;;4.00;3.33;;;;;12.11;67.87;100022.88;4982607;28;45598;-74
2021/12/07 10:16:03;;;;;;;;;9.67;7.67;;;;;12.20;68.67;100036.13;4993927;28;45329;-74
2021/12/07 10:18:32;;;;;;;;;10.25;10.25;;;;;12.22;69.06;100034.41;4997503;28;45428;-73
2021/12/07 10:21:24;;;;;;;;;14.00;13.75;;;;;12.29;68.82;100022.25;4987952;28;46123;-73
2021/12/07 10:23:58;;;;;;;;;15.75;15.00;;;;;12.33;68.61;100010.97;4961286;28;45572;-73
2021/12/07 10:26:27;;;;;;;;;8.25;8.00;;;;;12.33;68.37;99982.16;4972693;28;45542;-74
2021/12/07 10:29:01;;;;;;;;;10.00;9.25;;;;;12.64;69.04;100011.41;4984690;28;45458;-73
2021/12/07 10:31:39;;;;;;;;;3.67;3.67;;;;;12.70;68.44;100001.00;4978424;28;46075;-73
2021/12/07 10:34:08;;;;;;;;;5.67;5.00;;;;;12.73;68.44;99980.06;4985658;28;45327;-73
2021/12/07 10:36:43;;;;;;;;;10.67;8.67;;;;;12.90;68.39;99978.50;4992979;28;45443;-73
2021/12/07 10:39:19;;;;;;;;;14.75;14.25;;;;;12.97;67.86;99976.88;4978743;28;45373;-72
2021/12/07 10:41:56;;;;;;;;;7.33;6.33;;;;;12.89;67.49;99937.44;4997192;28;45427;-73
2021/12/07 10:44:30;;;;;;;;;2.67;2.67;;;;;12.90;66.78;99918.22;4994005;28;45309;-73
2021/12/07 10:46:59;;;;;;;;;2.33;2.00;;;;;12.88;67.17;99912.09;4977698;28;45313;-73
2021/12/07 10:49:43;;;;;;;;;5.00;5.00;;;;;13.07;66.69;99928.00;4990505;28;45360;-73
2021/12/07 10:52:11;;;;;;;;;7.67;7.67;;;;;13.13;68.07;99918.47;4992152;28;46194;-73
2021/12/07 10:55:07;;;;;;;;;10.00;9.00;;;;;13.24;66.87;99910.69;4987618;28;45337;-74
2021/12/07 10:57:43;;;;;;;;;5.00;4.67;;;;;13.32;65.92;99901.16;4992629;28;45843;-73
2021/12/07 11:00:23;;;;;;;;;5.00;4.67;;;;;13.38;65.46;99894.22;4978757;28;45502;-73
2021/12/07 11:02:56;;;;;;;;;8.67;8.00;;;;;13.31;65.51;99860.06;4995267;28;46550;-73
2021/12/07 11:05:30;;;;;;;;;19.00;19.00;;;;;13.35;65.37;99852.22;4996434;28;45506;-73
2021/12/07 11:07:57;;;;;;;;;3.00;2.33;;;;;13.43;65.23;99856.66;4977520;28;45481;-75
2021/12/07 11:10:30;;;;;;;;;10.33;9.00;;;;;13.38;65.55;99849.63;4977680;28;45667;-73
2021/12/07 11:13:06;;;;;;;;;1.33;1.33;;;;;13.44;65.50;99844.41;4991223;28;46352;-75
2021/12/07 11:15:35;;;;;;;;;7.67;7.67;;;;;13.43;65.19;99826.91;4976388;28;45477;-76
2021/12/07 11:18:03;;;;;;;;;5.33;4.67;;;;;13.50;65.29;99818.22;4991526;28;45692;-75
2021/12/07 11:20:29;;;;;;;;;7.67;7.67;;;;;13.41;65.86;99792.81;4977563;28;45489;-75
2021/12/07 11:23:04;;;;;;;;;6.67;5.00;;;;;13.53;65.36;99766.63;4992810;28;45440;-76
2021/12/07 11:29:39;;;;;;;;;4.67;4.67;;;;;13.36;65.38;99722.81;4984520;28;45388;-79
2021/12/07 11:31:25;;;;;;;;;3.00;2.33;;;;;13.60;65.92;99741.28;4981140;28;45328;-77
2021/12/07 11:33:54;;;;;;;;;5.67;4.00;;;;;13.67;65.24;99739.59;4959549;28;46849;-78
2021/12/07 11:36:27;;;;;;;;;1.00;1.00;;;;;13.69;64.94;99724.72;4992241;28;45234;-85
2021/12/07 11:38:54;;;;;;;;;0.00;0.00;;;;;13.54;65.01;99673.03;4977433;28;45456;-82
2021/12/07 11:41:27;;;;;;;;;2.00;1.00;;;;;13.76;64.00;99688.88;4990333;28;45485;-83
2021/12/07 11:44:08;;;;;;;;;2.00;1.33;;;;;14.04;63.33;99695.94;4988989;28;45584;-79
2021/12/07 11:46:36;;;;;;;;;1.00;1.00;;;;;14.10;62.21;99666.19;4995535;28;45418;-77
2021/12/07 11:49:10;;;;;;;;;0.00;0.00;;;;;14.40;62.53;99688.97;4995285;28;45537;-79
2021/12/07 11:51:36;;;;;;;;;1.00;1.00;;;;;14.51;61.38;99675.88;4964176;28;45511;-83
2021/12/07 11:54:03;;;;;;;;;1.00;1.00;;;;;14.50;61.24;99666.22;4992729;28;47076;-77
2021/12/07 11:56:30;;;;;;;;;1.00;1.00;;;;;14.59;61.26;99660.13;4995985;28;45467;-80
2021/12/07 11:58:56;;;;;;;;;0.67;0.00;;;;;14.47;61.27;99627.69;4977433;28;45580;-84
2021/12/07 12:01:22;;;;;;;;;1.00;1.00;;;;;14.50;60.82;99646.09;4978037;28;45619;-77
2021/12/07 12:03:47;;;;;;;;;0.00;0.00;;;;;14.35;61.33;99619.81;4995794;28;46318;-80
2021/12/07 12:06:13;;;;;;;;;1.00;1.00;;;;;14.31;61.07;99618.06;4995563;28;45504;-79
2021/12/07 12:08:40;;;;;;;;;1.00;1.00;;;;;14.42;61.11;99633.81;4995710;28;45503;-83
2021/12/07 12:11:19;;;;;;;;;0.00;0.00;;;;;14.52;60.87;99657.47;4978693;28;45611;-81
2021/12/07 12:14:15;;;;;;;;;0.00;0.00;;;;;14.43;61.24;99614.56;4975496;28;48145;-75
2021/12/07 12:16:41;;;;;;;;;1.00;1.00;;;;;14.57;61.04;99617.22;4990862;28;45771;-79
2021/12/07 12:19:34;;;;;;;;;0.00;0.00;;;;;14.54;60.86;99594.38;4964845;28;45350;-76
2021/12/07 12:22:14;;;;;;;;;0.00;0.00;;;;;13.89;60.96;99476.25;4964990;28;45560;-79
2021/12/07 12:24:49;;;;;;;;;1.00;0.00;;;;;14.38;60.79;99566.38;4986938;28;45643;-76
2021/12/07 12:27:16;;;;;;;;;0.00;0.00;;;;;14.56;60.43;99582.16;4990545;28;45410;-76
2021/12/07 12:29:46;;;;;;;;;0.00;0.00;;;;;14.50;59.72;99561.09;4995085;28;45529;-77
2021/12/07 12:32:12;;;;;;;;;1.00;1.00;;;;;14.47;60.70;99542.72;4996365;28;45416;-80
2021/12/07 12:34:48;;;;;;;;;0.00;0.00;;;;;14.55;60.18;99522.56;4998280;28;46601;-75
2021/12/07 12:37:23;;;;;;;;;1.00;0.00;;;;;14.48;60.36;99489.28;4980770;28;45657;-75
2021/12/07 12:39:56;;;;;;;;;3.67;2.33;;;;;14.70;60.30;99521.66;4968817;28;45514;-75
2021/12/07 12:42:36;;;;;;;;;5.00;5.00;;;;;14.62;60.17;99505.94;4987176;28;45607;-76
2021/12/07 12:45:20;;;;;;;;;6.33;6.00;;;;;14.62;60.29;99494.53;4980864;28;46382;-82
2021/12/07 12:48:13;;;;;;;;;12.67;10.00;;;;;14.60;60.07;99467.38;4989450;28;45475;-86
2021/12/07 12:50:51;;;;;;;;;3.67;3.67;;;;;14.73;60.10;99469.09;4974939;28;45471;-74
2021/12/07 12:53:24;;;;;;;;;2.33;2.00;;;;;14.83;59.59;99481.31;4979806;28;45505;-76
2021/12/07 12:56:05;;;;;;;;;2.67;2.67;;;;;14.73;59.71;99444.56;4990129;28;46124;-83
2021/12/07 12:58:31;;;;;;;;;1.00;1.00;;;;;14.82;60.25;99441.88;4964641;28;45969;-80
2021/12/07 13:01:15;;;;;;;;;2.00;1.00;;;;;14.86;60.55;99452.38;4999068;28;45325;-82
2021/12/07 13:03:41;;;;;;;;;2.00;2.00;;;;;14.77;59.84;99426.13;4982146;28;45232;-74
2021/12/07 13:06:08;;;;;;;;;1.00;1.00;;;;;14.81;59.20;99412.09;4999577;28;45477;-74
2021/12/07 13:08:53;;;;;;;;;2.00;1.00;;;;;14.87;59.47;99421.69;4999353;28;45397;-75
2021/12/07 13:11:46;;;;;;;;;1.00;1.00;;;;;14.95;59.30;99422.53;4981601;28;45507;-75
2021/12/07 13:14:24;;;;;;;;;3.00;2.00;;;;;15.04;59.99;99411.06;4997096;28;45872;-75
2021/12/07 13:16:53;;;;;;;;;4.00;2.67;;;;;14.99;58.92;99407.59;4999459;28;45483;-75
2021/12/07 13:19:20;;;;;;;;;4.00;3.00;;;;;15.08;58.82;99402.25;4981727;28;45479;-74
2021/12/07 13:21:47;;;;;;;;;5.00;4.33;;;;;15.08;58.99;99382.13;4999458;28;45352;-75